New Almaden, California
Current Conditions -  °F | °C
As of 11:47 AM on Wednesday 26 Nov 2014 (Local Time) from KRHV Reporting Station
Clear Clear  
Wind Chill: 68°   Ceiling: Unl
Heat Index: 68°   Visibility: 10mi
Dew Point: 45°   Wind: 0mph
Humidity: 43%   Direction: NA
Pressure: 30.27"   Gusts: NA
Location:  37.18°N, 121.82°W
Report Text: KRHV 261947Z 00000KT 10SM SKC 20/07 A3027
Loading
Personal Weather Stations






























Interactive Weather Map New forecast layout! Learn more

10-Day Weather Forecast

Advertisements
Track Severe Weather on mobile